createdAt,value
2023-03-06T00:03:58.522Z,477.3016
2023-03-06T00:09:00.218Z,437.00575
2023-03-06T00:14:01.821Z,409.12135
2023-03-06T00:19:03.573Z,399.8817
2023-03-06T00:24:05.252Z,380.49915
2023-03-06T00:29:06.873Z,354.754
2023-03-06T00:34:08.656Z,324.84065
2023-03-06T00:39:10.587Z,281.9625
2023-03-06T00:44:12.425Z,242.201
2023-03-06T00:49:14.172Z,210.57245
2023-03-06T00:54:15.799Z,180.84355
2023-03-06T00:59:17.454Z,158.2702
2023-03-06T01:04:19.206Z,127.6932
2023-03-06T01:09:20.794Z,116.36945
2023-03-06T01:14:22.430Z,93.9254
2023-03-06T01:19:24.144Z,78.268
2023-03-06T01:24:25.896Z,60.0473
2023-03-06T01:29:27.692Z,44.1503
2023-03-06T01:34:29.534Z,33.32475
2023-03-06T01:39:31.150Z,22.8681
2023-03-06T01:44:33.030Z,14.9196
2023-03-06T01:49:34.754Z,9.11035
2023-03-06T01:54:36.381Z,3.48555
2023-03-06T01:59:38.213Z,1.16185
2023-03-06T02:04:40.501Z,0.88715
2023-03-06T02:09:42.201Z,0
2023-03-06T02:14:43.837Z,0
2023-03-06T02:19:45.557Z,0
2023-03-06T02:24:47.173Z,0
2023-03-06T02:29:49.209Z,0
2023-03-06T02:34:50.970Z,0
2023-03-06T02:39:52.609Z,0
2023-03-06T02:44:54.302Z,0
2023-03-06T02:49:56.047Z,0
2023-03-06T02:54:57.696Z,0
2023-03-06T02:59:59.292Z,0
2023-03-06T03:05:01.020Z,0
2023-03-06T03:10:02.613Z,0
2023-03-06T03:15:04.850Z,0
2023-03-06T03:20:06.489Z,0
2023-03-06T03:25:08.168Z,0
2023-03-06T03:30:09.845Z,0
2023-03-06T03:35:11.652Z,0
2023-03-06T03:40:13.265Z,0
2023-03-06T03:45:14.892Z,0
2023-03-06T03:50:16.445Z,0
2023-03-06T03:55:18.310Z,0
2023-03-06T04:00:20.050Z,0
2023-03-06T04:05:21.853Z,0
2023-03-06T04:10:23.644Z,0
2023-03-06T04:15:25.369Z,0
2023-03-06T04:20:27.069Z,0
2023-03-06T04:25:28.740Z,0
2023-03-06T04:30:30.350Z,0
2023-03-06T04:35:31.975Z,0
2023-03-06T04:40:33.660Z,0
2023-03-06T04:45:35.435Z,0
2023-03-06T04:50:37.055Z,0
2023-03-06T04:55:38.680Z,0
2023-03-06T05:00:40.362Z,0
2023-03-06T05:05:42.216Z,0
2023-03-06T05:10:43.893Z,0
2023-03-06T05:15:45.787Z,0
2023-03-06T05:20:47.500Z,0
2023-03-06T05:25:49.170Z,0
2023-03-06T05:30:50.802Z,0
2023-03-06T05:35:52.469Z,0
2023-03-06T05:40:54.150Z,0
2023-03-06T05:45:55.811Z,0
2023-03-06T05:50:57.575Z,0
2023-03-06T05:55:59.183Z,0
2023-03-06T06:01:00.869Z,0
2023-03-06T06:06:02.549Z,0
2023-03-06T06:11:04.176Z,0
2023-03-06T06:16:06.006Z,0
2023-03-06T06:21:07.774Z,0
2023-03-06T06:26:09.492Z,0
2023-03-06T06:31:11.216Z,0
2023-03-06T06:36:12.903Z,0
2023-03-06T06:41:46.066Z,0
2023-03-06T06:52:20.122Z,0
2023-03-06T06:57:21.790Z,0
2023-03-06T07:02:23.446Z,0
2023-03-06T07:07:26.528Z,0
2023-03-06T07:12:28.313Z,0
2023-03-06T07:17:29.983Z,0
2023-03-06T07:22:38.695Z,0
2023-03-06T07:27:52.806Z,0
2023-03-06T07:32:55.365Z,0
2023-03-06T07:37:56.998Z,0
2023-03-06T07:43:13.017Z,0
2023-03-06T07:48:20.183Z,0
2023-03-06T07:53:21.862Z,0
2023-03-06T07:58:23.522Z,0
2023-03-06T08:03:25.121Z,0
2023-03-06T08:08:26.792Z,0
2023-03-06T08:13:28.440Z,0
2023-03-06T08:18:30.034Z,0
2023-03-06T08:23:31.752Z,0
2023-03-06T08:28:33.398Z,0
2023-03-06T08:33:35.070Z,0
2023-03-06T08:38:36.691Z,0
2023-03-06T08:43:38.617Z,0
2023-03-06T08:48:40.313Z,0
2023-03-06T08:53:43.823Z,0
2023-03-06T08:58:45.866Z,0
2023-03-06T09:03:47.600Z,0
2023-03-06T09:08:49.259Z,0
2023-03-06T09:13:50.865Z,0
2023-03-06T09:18:52.520Z,0
2023-03-06T09:23:54.252Z,0
2023-03-06T09:28:55.824Z,0
2023-03-06T09:33:57.440Z,0
2023-03-06T09:38:59.084Z,0
2023-03-06T09:44:00.729Z,0
2023-03-06T09:49:02.486Z,0
2023-03-06T09:54:04.354Z,0
2023-03-06T09:59:05.974Z,0
2023-03-06T10:04:07.662Z,0
2023-03-06T10:09:09.324Z,0
2023-03-06T10:14:11.208Z,0
2023-03-06T10:19:12.891Z,0
2023-03-06T10:24:14.612Z,0
2023-03-06T10:29:16.226Z,0
2023-03-06T10:34:17.858Z,0
2023-03-06T10:39:19.472Z,0
2023-03-06T10:44:21.082Z,0
2023-03-06T10:49:22.705Z,0
2023-03-06T10:54:24.476Z,0
2023-03-06T10:59:26.131Z,0
2023-03-06T11:04:27.863Z,0
2023-03-06T11:09:29.611Z,0
2023-03-06T11:14:31.213Z,0
2023-03-06T11:19:32.916Z,0
2023-03-06T11:24:34.563Z,0
2023-03-06T11:29:38.457Z,0
2023-03-06T11:34:40.400Z,0
2023-03-06T11:39:42.010Z,0
2023-03-06T11:44:43.640Z,0
2023-03-06T11:49:45.345Z,0
2023-03-06T11:54:46.986Z,0
2023-03-06T11:59:48.770Z,0
2023-03-06T12:04:50.462Z,0
2023-03-06T12:09:52.096Z,0
2023-03-06T12:14:53.722Z,0
2023-03-06T12:19:55.425Z,0
2023-03-06T12:24:57.090Z,0
2023-03-06T12:29:58.697Z,0
2023-03-06T12:35:00.402Z,0
2023-03-06T12:40:02.073Z,0
2023-03-06T12:45:03.760Z,0
2023-03-06T12:50:05.353Z,0
2023-03-06T12:55:07.118Z,0
2023-03-06T13:00:08.753Z,0
2023-03-06T13:05:10.401Z,0
2023-03-06T13:10:12.186Z,0
2023-03-06T13:15:13.759Z,0
2023-03-06T13:20:15.509Z,0
2023-03-06T13:25:17.144Z,0
2023-03-06T13:30:18.747Z,0
2023-03-06T13:35:20.395Z,0
2023-03-06T13:40:22.038Z,0
2023-03-06T13:45:23.634Z,0
2023-03-06T13:50:25.495Z,0
2023-03-06T13:55:27.108Z,0.88715
2023-03-06T14:00:28.825Z,1.16185
2023-03-06T14:05:30.432Z,2.50815
2023-03-06T14:10:32.130Z,7.15555
2023-03-06T14:15:34.036Z,13.14925
2023-03-06T14:20:35.702Z,24.76775
2023-03-06T14:25:37.320Z,42.1955
2023-03-06T14:30:39.004Z,62.31585
2023-03-06T14:35:40.632Z,87.0836
2023-03-06T14:40:42.321Z,120.40835
2023-03-06T14:45:43.957Z,155.0794
2023-03-06T14:50:45.608Z,193.66005
2023-03-06T14:55:47.281Z,222.9459
2023-03-06T15:00:48.980Z,255.1088
2023-03-06T15:05:50.658Z,298.33685
2023-03-06T15:10:52.264Z,339.3705
2023-03-06T15:15:53.949Z,370.13195
2023-03-06T15:20:55.634Z,692.6215
2023-03-06T15:25:57.504Z,566.92715
2023-03-06T15:30:59.343Z,727.9488
2023-03-06T15:36:01.030Z,635.15515
2023-03-06T15:41:02.657Z,735.70545
2023-03-06T15:46:04.415Z,640.86755
2023-03-06T15:51:06.204Z,578.4377
2023-03-06T15:56:07.870Z,625.4099
2023-03-06T16:01:09.634Z,699.49255
2023-03-06T16:06:11.475Z,805.9967
2023-03-06T16:11:13.129Z,900.8462
2023-03-06T16:16:14.939Z,922.40415
2023-03-06T16:21:16.654Z,1025.2383
2023-03-06T16:26:18.323Z,1339.3141
2023-03-06T16:31:19.993Z,1246.15895
2023-03-06T16:36:21.649Z,1572.7945
2023-03-06T16:41:23.265Z,1517.89095
2023-03-06T16:46:24.949Z,2003.90525
2023-03-06T16:51:26.709Z,1892.06735
2023-03-06T16:56:28.370Z,2193.2335
2023-03-06T17:01:30.128Z,2368.61955
2023-03-06T17:06:31.861Z,2279.8152
2023-03-06T17:11:33.765Z,2600.05015
2023-03-06T17:16:35.402Z,2994.44005
2023-03-06T17:21:37.220Z,2128.58285
2023-03-06T17:26:39.029Z,2826.36945
2023-03-06T17:31:40.659Z,2548.4403
2023-03-06T17:36:42.359Z,2166.3877
2023-03-06T17:41:46.300Z,2277.88915
2023-03-06T17:46:48.414Z,2399.3129
2023-03-06T17:51:50.190Z,2419.6177
2023-03-06T17:56:52.067Z,2083.30315
2023-03-06T18:01:53.793Z,2051.36085
2023-03-06T18:06:55.410Z,2091.0482
2023-03-06T18:11:57.062Z,2181.26745
2023-03-06T18:16:58.671Z,2286.5356
2023-03-06T18:22:00.296Z,2481.5248
2023-03-06T18:27:02.004Z,2277.42525
2023-03-06T18:32:03.852Z,2302.4516
2023-03-06T18:37:05.716Z,2425.81115
2023-03-06T18:42:07.346Z,2196.16805
2023-03-06T18:47:08.945Z,2232.99735
2023-03-06T18:52:10.892Z,2500.9625
2023-03-06T18:57:12.722Z,2395.6392
2023-03-06T19:02:14.360Z,2597.82195
2023-03-06T19:07:16.216Z,2477.30145
2023-03-06T19:12:17.831Z,2526.044
2023-03-06T19:17:19.539Z,2451.2977
2023-03-06T19:22:21.184Z,2516.6579
2023-03-06T19:27:22.837Z,2351.5992
2023-03-06T19:32:24.568Z,2072.06885
2023-03-06T19:37:26.204Z,2099.60335
2023-03-06T19:42:27.822Z,3183.31785
2023-03-06T19:47:29.438Z,1972.2962
2023-03-06T19:52:31.280Z,2105.0627
2023-03-06T19:57:33.080Z,2564.07685
2023-03-06T20:02:34.755Z,1999.941
2023-03-06T20:07:36.513Z,2006.1553
2023-03-06T20:12:38.174Z,1920.08525
2023-03-06T20:17:39.856Z,1862.10305
2023-03-06T20:22:41.756Z,1899.28225
2023-03-06T20:27:43.431Z,1787.94625
2023-03-06T20:32:45.364Z,1847.16445
2023-03-06T20:37:46.980Z,1862.5081
2023-03-06T20:42:48.633Z,1836.2096
2023-03-06T20:47:50.348Z,1831.61735
2023-03-06T20:52:52.008Z,1835.6011
2023-03-06T20:57:53.601Z,1948.523
2023-03-06T21:02:55.358Z,2014.9519
2023-03-06T21:07:56.993Z,2074.22525
2023-03-06T21:12:58.596Z,2089.7172
2023-03-06T21:18:00.375Z,2022.0713
2023-03-06T21:23:02.112Z,2023.49175
2023-03-06T21:28:03.965Z,1995.054
2023-03-06T21:33:05.648Z,1932.73815
2023-03-06T21:38:07.456Z,1886.87265
2023-03-06T21:43:09.138Z,1827.1201
2023-03-06T21:48:10.990Z,1862.04975
2023-03-06T21:53:12.674Z,1863.9494
2023-03-06T21:58:14.595Z,1826.58575
2023-03-06T22:03:16.602Z,1853.75135
2023-03-06T22:08:18.123Z,1841.52435
2023-03-06T22:13:19.737Z,1855.1718
2023-03-06T22:18:21.361Z,1791.38035
2023-03-06T22:23:23.186Z,1781.2926
2023-03-06T22:28:24.856Z,1824.53965
2023-03-06T22:33:26.550Z,1898.67745
2023-03-06T22:38:28.213Z,1699.15115
2023-03-06T22:43:30.053Z,1744.66675
2023-03-06T22:48:31.958Z,1842.8345
2023-03-06T22:53:33.618Z,1812.1472
2023-03-06T22:58:35.274Z,1702.84015
2023-03-06T23:03:36.906Z,1790.9943
2023-03-06T23:08:38.548Z,1556.8521
2023-03-06T23:13:40.284Z,1441.77195
2023-03-06T23:18:41.927Z,1322.00825
2023-03-06T23:23:43.590Z,1338.6449
2023-03-06T23:28:45.239Z,1211.98425
2023-03-06T23:33:47.009Z,1075.45645
2023-03-06T23:38:48.632Z,1013.32875
2023-03-06T23:43:50.325Z,886.75755
2023-03-06T23:48:51.938Z,726.73045
2023-03-06T23:53:54.328Z,734.14645
2023-03-06T23:58:55.949Z,662.79255
